Current Conditions
Clear
Conditions



Pressure
1009.92 (hPa) - 29.82 (inHG)
Visibility

6.2 (miles) - 10.0 (km)
Temperature
23  °C
Temperature
13  °C
Dewpoint
53  %
 Humidity
Wind Speed
10  mph
9  kts
16  km/h
4.5  m/s
Wind Direction
N
45°
E
90°
135°
S
180°
225°
W
270°
315°
 20°

North North
East
Airport Data
EGAC
George Best Belfast City Airport
Metar :EGAC 251420Z AUTO 02009KT 9999 NCD 23/13 Q1010
Sun 25th July 14:20 pm
Raw Metar Info
Raw METAR is the most common format in the world for the transmission of observational weather data. It is highly standardized through the International Civil Aviation Organization (ICAO), which allows it to be understood throughout most of the world.
API Info
Data Provided by
https://www.checkwx.com/weather/EGAC

Aviation Weather providing METAR, TAF, AIRMET, SIGMET and OUTLOOK Weather Reports
© Info
CSS/SVG/PHP scripts were developed by weather34.com for use in the weather34 template © 2015-2021

Guide Info provided by Metar-Wikipedia